Terminal Aerodrome Forecast
Issued by NWS

Current Version | Previous Version | Text Only | Print | Product List | Glossary Off
Versions: 1 2 3 4 5 6 7 8 9 10 11 12 13 14 15 16 17 18 19 20

000
FTUS41 KILN 201720
TAFLUK
TAF
KLUK 201720Z 2018/2118 18004KT P6SM FEW060 SCT150
     FM210000 00000KT P6SM FEW250
     FM210600 00000KT 4SM BR FEW250
     FM211300 17003KT P6SM FEW050=

USA.gov is the U.S. government's official web portal to all federal, state and local government web resources and services.